Time;durP1;ratioP1;P1;durP2;ratioP2;P2;SDS_P1;SDS_P2;PMS_P1;PMS_P2;Temp;Humidity;BMP_temperature;BMP_pressure;BME280_temperature;BME280_humidity;BME280_pressure;Samples;Min_cycle;Max_cycle;Signal;HPM_P1;HPM_P2
2022/07/05 00:00:16;;;;;;;2.10;1.83;;;22.70;82.60;23.40;96753.00;;;;5026765;28;20217;-81
2022/07/05 00:02:44;;;;;;;2.10;1.80;;;22.70;82.50;23.50;96755.00;;;;5046192;28;20222;-81
2022/07/05 00:05:12;;;;;;;1.90;1.80;;;22.70;82.60;23.50;96748.00;;;;5053900;28;20194;-82
2022/07/05 00:07:39;;;;;;;2.37;1.80;;;22.70;82.60;23.50;96746.00;;;;5025133;28;20229;-82
2022/07/05 00:10:07;;;;;;;2.10;1.87;;;22.70;82.60;23.50;96742.00;;;;5054575;28;20220;-82
2022/07/05 00:12:35;;;;;;;1.57;1.47;;;22.70;82.70;23.50;96742.00;;;;5047167;28;20268;-82
2022/07/05 00:15:04;;;;;;;1.73;1.63;;;22.70;82.90;23.50;96725.00;;;;5049133;28;20189;-82
2022/07/05 00:17:31;;;;;;;1.70;1.60;;;22.80;83.00;23.50;96732.00;;;;5038246;28;20728;-82
2022/07/05 00:19:59;;;;;;;1.50;1.40;;;22.80;83.00;23.50;96726.00;;;;5048348;28;20255;-82
2022/07/05 00:22:26;;;;;;;1.63;1.53;;;22.80;83.00;23.50;96725.00;;;;5044338;28;20770;-81
2022/07/05 00:24:53;;;;;;;3.90;1.87;;;22.80;82.90;23.50;96723.00;;;;5054368;28;20189;-81
2022/07/05 00:27:20;;;;;;;2.40;1.73;;;22.80;83.10;23.50;96721.00;;;;5038298;28;20205;-82
2022/07/05 00:29:48;;;;;;;1.50;1.40;;;22.80;83.10;23.50;96731.00;;;;5024693;28;20801;-82
2022/07/05 00:32:15;;;;;;;1.57;1.47;;;22.80;83.00;23.60;96720.00;;;;5031759;28;20221;-81
2022/07/05 00:34:42;;;;;;;2.10;2.00;;;22.80;82.90;23.60;96725.00;;;;5062821;28;20224;-81
2022/07/05 00:37:10;;;;;;;1.60;1.50;;;22.80;82.90;23.60;96723.00;;;;5048556;28;20228;-81
2022/07/05 00:39:38;;;;;;;1.70;1.60;;;22.80;83.70;23.60;96713.00;;;;5022148;28;20234;-81
2022/07/05 00:42:05;;;;;;;3.00;1.50;;;22.80;82.60;23.60;96715.00;;;;5031282;28;20755;-83
2022/07/05 00:44:35;;;;;;;1.93;1.63;;;22.80;82.60;23.50;96710.00;;;;5045061;28;20233;-83
2022/07/05 00:47:03;;;;;;;1.70;1.60;;;22.80;82.60;23.60;96710.00;;;;5036153;28;20198;-82
2022/07/05 00:49:31;;;;;;;2.63;1.60;;;22.80;82.50;23.50;96707.00;;;;5018129;28;20309;-81
2022/07/05 00:52:00;;;;;;;1.60;1.37;;;22.80;82.60;23.50;96703.00;;;;5018618;28;20256;-82
2022/07/05 00:54:30;;;;;;;1.40;1.30;;;22.80;82.60;23.50;96701.00;;;;5050382;28;20284;-82
2022/07/05 00:56:57;;;;;;;1.60;1.50;;;22.80;82.60;23.50;96704.00;;;;5057658;28;20203;-83
2022/07/05 00:59:25;;;;;;;1.40;1.30;;;22.80;82.60;23.50;96699.00;;;;5035876;28;20691;-82
2022/07/05 01:01:52;;;;;;;3.70;1.70;;;22.80;82.70;23.50;96702.00;;;;5019753;28;20229;-81
2022/07/05 01:04:19;;;;;;;1.40;1.30;;;22.80;82.80;23.50;96703.00;;;;5049856;28;20616;-82
2022/07/05 01:06:49;;;;;;;1.30;1.20;;;22.80;82.50;23.50;96706.00;;;;5045334;28;20281;-82
2022/07/05 01:09:20;;;;;;;1.70;1.60;;;22.80;82.50;23.50;96707.00;;;;5048041;28;20777;-81
2022/07/05 01:11:50;;;;;;;1.70;1.40;;;22.80;82.60;23.50;96710.00;;;;5047270;28;20263;-82
2022/07/05 01:14:20;;;;;;;2.37;1.40;;;22.80;82.40;23.50;96708.00;;;;5039336;28;20628;-82
2022/07/05 01:16:50;;;;;;;2.27;1.33;;;22.80;82.40;23.50;96707.00;;;;5045943;28;20188;-82
2022/07/05 01:19:18;;;;;;;1.83;1.40;;;22.70;82.20;23.50;96709.00;;;;5037391;28;20232;-82
2022/07/05 01:21:48;;;;;;;2.50;1.40;;;22.80;82.30;23.40;96701.00;;;;5028350;28;20208;-82
2022/07/05 01:24:20;;;;;;;3.27;1.40;;;22.80;82.40;23.40;96702.00;;;;5048390;28;20208;-82
2022/07/05 01:26:50;;;;;;;1.47;1.37;;;22.80;82.40;23.40;96696.00;;;;5049869;28;20197;-82
2022/07/05 01:29:18;;;;;;;1.57;1.47;;;22.70;82.20;23.40;96691.00;;;;5056907;28;20595;-83
2022/07/05 01:31:45;;;;;;;1.33;1.23;;;22.70;82.20;23.40;96702.00;;;;5036499;28;20225;-82
2022/07/05 01:34:13;;;;;;;1.40;1.30;;;22.70;82.00;23.40;96700.00;;;;5038558;28;20208;-82
2022/07/05 01:36:40;;;;;;;2.40;1.23;;;22.70;81.90;23.40;96693.00;;;;5044113;28;20236;-82
2022/07/05 01:39:08;;;;;;;1.87;1.27;;;22.70;82.00;23.40;96692.00;;;;5043982;28;20231;-82
2022/07/05 01:41:37;;;;;;;2.77;1.37;;;22.70;82.00;23.40;96692.00;;;;5027573;28;20201;-83
2022/07/05 01:44:05;;;;;;;1.10;1.00;;;22.70;82.00;23.30;96690.00;;;;5025787;28;20233;-82
2022/07/05 01:46:36;;;;;;;1.53;1.43;;;22.60;81.90;23.30;96691.00;;;;5039806;28;20928;-82
2022/07/05 01:49:09;;;;;;;1.00;1.00;;;22.60;81.90;23.30;96697.00;;;;5044220;28;20230;-82
2022/07/05 01:51:45;;;;;;;3.87;1.30;;;22.70;82.00;23.30;96698.00;;;;5039004;28;20232;-83
2022/07/05 01:54:12;;;;;;;1.47;1.30;;;22.60;82.00;23.30;96703.00;;;;5027023;28;20238;-82
2022/07/05 01:56:41;;;;;;;1.67;1.30;;;22.60;81.70;23.30;96700.00;;;;5024391;28;20208;-82
2022/07/05 01:59:08;;;;;;;1.30;1.20;;;22.60;81.70;23.30;96701.00;;;;5054374;28;20614;-82
2022/07/05 02:01:39;;;;;;;4.23;1.03;;;22.60;81.70;23.20;96701.00;;;;5041471;28;20202;-83
2022/07/05 02:04:08;;;;;;;1.30;1.20;;;22.60;81.80;23.20;96693.00;;;;5036292;28;20276;-84
2022/07/05 02:06:36;;;;;;;1.13;1.13;;;22.60;81.80;23.20;96696.00;;;;5026703;28;20630;-82
2022/07/05 02:09:06;;;;;;;0.90;0.90;;;22.60;81.60;23.20;96699.00;;;;5055197;28;20196;-83
2022/07/05 02:11:33;;;;;;;1.33;1.00;;;22.50;81.40;23.20;96701.00;;;;5046519;28;20681;-83
2022/07/05 02:14:02;;;;;;;1.80;1.00;;;22.50;81.40;23.10;96702.00;;;;5031739;28;20247;-83
2022/07/05 02:16:30;;;;;;;1.20;1.10;;;22.50;81.40;23.10;96709.00;;;;5042506;28;20302;-83
2022/07/05 02:18:57;;;;;;;1.27;1.03;;;22.50;81.50;23.10;96699.00;;;;5031327;28;20284;-83
2022/07/05 02:21:25;;;;;;;1.00;0.90;;;22.50;81.60;23.10;96696.00;;;;5046152;28;20280;-82
2022/07/05 02:23:52;;;;;;;1.03;1.03;;;22.50;81.60;23.10;96704.00;;;;5039644;28;20258;-83
2022/07/05 02:26:19;;;;;;;2.07;1.43;;;22.40;81.40;23.10;96702.00;;;;5050107;28;20220;-82
2022/07/05 02:28:47;;;;;;;1.57;1.10;;;22.50;81.40;23.10;96706.00;;;;5027462;28;20234;-83
2022/07/05 02:31:16;;;;;;;1.10;1.00;;;22.40;81.50;23.10;96710.00;;;;5024667;28;20754;-83
2022/07/05 02:33:43;;;;;;;1.23;1.20;;;22.50;81.70;23.10;96713.00;;;;5044303;28;20225;-83
2022/07/05 02:36:13;;;;;;;1.37;1.27;;;22.40;81.70;23.10;96711.00;;;;5037609;28;20252;-83
2022/07/05 02:38:41;;;;;;;2.33;1.27;;;22.40;81.70;23.10;96709.00;;;;5016076;28;20276;-82
2022/07/05 02:41:11;;;;;;;1.90;1.10;;;22.40;81.70;23.10;96718.00;;;;5043331;28;20291;-83
2022/07/05 02:43:39;;;;;;;0.87;0.87;;;22.40;81.60;23.10;96717.00;;;;5039863;28;20213;-82
2022/07/05 02:46:08;;;;;;;1.10;1.10;;;22.40;81.60;23.10;96720.00;;;;5047726;28;20284;-82
2022/07/05 02:48:38;;;;;;;2.20;1.07;;;22.40;81.40;23.10;96718.00;;;;5030398;28;20204;-81
2022/07/05 02:51:07;;;;;;;1.40;1.10;;;22.40;81.40;23.10;96722.00;;;;5051903;28;20300;-82
2022/07/05 02:53:35;;;;;;;1.23;1.13;;;22.40;81.20;23.10;96719.00;;;;5016458;28;20267;-83
2022/07/05 02:56:02;;;;;;;1.30;1.20;;;22.40;81.10;23.10;96714.00;;;;5044352;28;20194;-81
2022/07/05 02:58:30;;;;;;;1.33;1.10;;;22.40;81.20;23.00;96723.00;;;;5012750;28;20286;-83
2022/07/05 03:00:57;;;;;;;0.70;0.70;;;22.40;81.30;23.00;96718.00;;;;5042183;28;20220;-83
2022/07/05 03:03:24;;;;;;;1.40;1.20;;;22.40;81.30;23.00;96723.00;;;;5033445;28;20224;-82
2022/07/05 03:05:53;;;;;;;1.00;0.90;;;22.40;81.20;23.00;96727.00;;;;5042037;28;20196;-83
2022/07/05 03:08:20;;;;;;;1.10;1.00;;;22.40;81.30;23.00;96724.00;;;;5011865;28;20288;-83
2022/07/05 03:10:48;;;;;;;1.30;0.97;;;22.30;81.00;23.00;96725.00;;;;5041893;28;20691;-83
2022/07/05 03:13:15;;;;;;;1.10;1.10;;;22.30;81.10;22.90;96723.00;;;;5013784;28;20256;-83
2022/07/05 03:15:42;;;;;;;1.07;0.93;;;22.30;81.10;22.90;96728.00;;;;5040461;28;20224;-83
2022/07/05 03:18:10;;;;;;;1.53;1.00;;;22.30;81.10;22.90;96723.00;;;;5012062;28;20198;-83
2022/07/05 03:20:37;;;;;;;1.57;1.00;;;22.30;81.10;22.90;96740.00;;;;5014741;28;20233;-83
2022/07/05 03:23:06;;;;;;;1.03;1.00;;;22.30;81.10;22.80;96732.00;;;;5038052;28;20235;-82
2022/07/05 03:25:34;;;;;;;1.17;1.07;;;22.20;81.10;22.80;96731.00;;;;5039416;28;20243;-84
2022/07/05 03:28:01;;;;;;;2.97;1.40;;;22.20;81.30;22.80;96734.00;;;;5046199;28;20617;-82
2022/07/05 03:30:28;;;;;;;1.67;1.03;;;22.20;81.40;22.80;96739.00;;;;5021284;28;20594;-83
2022/07/05 03:32:55;;;;;;;1.27;1.10;;;22.20;81.30;22.90;96731.00;;;;5012160;28;20306;-82
2022/07/05 03:35:22;;;;;;;1.40;0.90;;;22.20;81.30;22.90;96743.00;;;;5028583;28;20277;-83
2022/07/05 03:37:49;;;;;;;1.23;1.13;;;22.20;81.40;22.90;96729.00;;;;5033893;28;20237;-84
2022/07/05 03:40:18;;;;;;;1.43;0.90;;;22.20;81.50;22.90;96731.00;;;;5021851;28;20721;-84
2022/07/05 03:42:45;;;;;;;1.67;1.20;;;22.20;81.50;22.90;96740.00;;;;5042524;28;20296;-82
2022/07/05 03:45:12;;;;;;;1.40;0.80;;;22.20;81.50;22.90;96730.00;;;;5026903;28;20226;-82
2022/07/05 03:47:40;;;;;;;0.97;0.90;;;22.20;81.40;22.90;96729.00;;;;5042136;28;20280;-83
2022/07/05 03:50:08;;;;;;;2.70;1.20;;;22.20;81.50;22.90;96733.00;;;;5035369;28;20213;-83
2022/07/05 03:52:35;;;;;;;1.90;1.10;;;22.20;81.50;22.90;96727.00;;;;5036551;28;20305;-83
2022/07/05 03:55:02;;;;;;;1.47;1.20;;;22.20;81.50;22.90;96726.00;;;;5033186;28;20276;-82
2022/07/05 03:57:31;;;;;;;1.80;1.40;;;22.20;81.70;22.90;96730.00;;;;5055607;28;20216;-82
2022/07/05 03:59:58;;;;;;;1.63;1.40;;;22.20;81.60;22.90;96734.00;;;;5039076;28;20212;-80
2022/07/05 04:02:25;;;;;;;1.30;1.00;;;22.30;81.50;22.90;96736.00;;;;5052021;28;20279;-83
2022/07/05 04:04:52;;;;;;;1.27;1.10;;;22.20;81.50;23.00;96740.00;;;;5034679;28;20224;-83
2022/07/05 04:07:19;;;;;;;1.73;0.90;;;22.20;81.50;22.90;96743.00;;;;5020196;28;20784;-84
2022/07/05 04:09:47;;;;;;;1.87;1.10;;;22.30;81.40;23.00;96746.00;;;;5021536;28;20267;-84
2022/07/05 04:12:14;;;;;;;1.20;1.10;;;22.30;81.20;22.90;96744.00;;;;5054963;28;20204;-83
2022/07/05 04:14:42;;;;;;;1.90;1.07;;;22.20;81.10;22.90;96745.00;;;;5042894;28;20221;-83
2022/07/05 04:17:10;;;;;;;1.13;0.87;;;22.20;81.20;22.90;96752.00;;;;5037364;28;20216;-83
2022/07/05 04:19:37;;;;;;;2.07;1.00;;;22.20;81.20;22.90;96748.00;;;;5045644;28;20257;-83
2022/07/05 04:22:04;;;;;;;1.20;0.90;;;22.20;81.90;22.90;96742.00;;;;5049519;28;20275;-83
2022/07/05 04:25:16;;;;;;;1.17;1.03;;;22.20;81.30;22.90;96745.00;;;;5037882;28;20213;-83
2022/07/05 04:27:19;;;;;;;1.20;1.10;;;22.20;81.20;22.90;96750.00;;;;5046053;28;20193;-82
2022/07/05 04:29:48;;;;;;;0.90;0.90;;;22.20;81.20;22.90;96744.00;;;;5045259;28;20220;-82
2022/07/05 04:32:15;;;;;;;2.57;1.10;;;22.20;81.20;22.90;96746.00;;;;5044779;28;20220;-82
2022/07/05 04:34:43;;;;;;;1.10;1.00;;;22.20;81.00;22.90;96735.00;;;;5043237;28;20762;-81
2022/07/05 04:37:10;;;;;;;2.27;1.37;;;22.20;80.90;22.90;96744.00;;;;5037104;28;20254;-82
2022/07/05 04:39:37;;;;;;;1.00;1.00;;;22.20;80.80;22.90;96739.00;;;;5044734;28;20284;-82
2022/07/05 04:42:05;;;;;;;1.13;1.07;;;22.20;81.00;22.90;96746.00;;;;5021556;28;20290;-82
2022/07/05 04:44:32;;;;;;;1.20;1.10;;;22.20;81.00;22.90;96750.00;;;;5046891;28;20284;-82
2022/07/05 04:47:01;;;;;;;1.53;1.23;;;22.20;81.00;22.90;96762.00;;;;5034252;28;20239;-82
2022/07/05 04:49:28;;;;;;;1.20;1.07;;;22.20;81.20;22.90;96757.00;;;;5051144;28;20267;-82
2022/07/05 04:51:55;;;;;;;0.97;0.97;;;22.20;81.20;22.90;96764.00;;;;5036170;28;20193;-81
2022/07/05 04:54:22;;;;;;;2.27;1.23;;;22.20;81.30;22.90;96764.00;;;;5037623;28;20317;-82
2022/07/05 04:56:49;;;;;;;1.17;1.03;;;22.20;81.30;22.90;96757.00;;;;5037977;28;20719;-82
2022/07/05 04:59:16;;;;;;;1.40;1.10;;;22.20;81.30;23.00;96759.00;;;;5054213;28;20197;-83
2022/07/05 05:01:43;;;;;;;2.03;1.00;;;22.20;81.20;23.00;96761.00;;;;5019057;28;20648;-83
2022/07/05 05:04:12;;;;;;;2.40;1.00;;;22.20;81.20;23.00;96763.00;;;;5019510;28;20265;-82
2022/07/05 05:06:39;;;;;;;1.40;1.20;;;22.20;81.30;23.00;96760.00;;;;5029387;28;20656;-83
2022/07/05 05:09:06;;;;;;;2.77;1.17;;;22.20;81.10;23.00;96761.00;;;;5054219;28;20278;-82
2022/07/05 05:11:33;;;;;;;1.83;1.20;;;22.20;80.90;23.00;96752.00;;;;5051106;28;20706;-81
2022/07/05 05:14:01;;;;;;;1.00;1.00;;;22.20;80.80;23.00;96761.00;;;;5034364;28;20684;-81
2022/07/05 05:16:28;;;;;;;1.30;1.20;;;22.20;81.00;23.00;96759.00;;;;5036703;28;20193;-81
2022/07/05 05:18:55;;;;;;;1.83;1.30;;;22.20;80.90;23.00;96762.00;;;;5047745;28;20188;-81
2022/07/05 05:21:23;;;;;;;1.43;1.10;;;22.20;80.90;23.00;96766.00;;;;5028224;28;20205;-82
2022/07/05 05:23:50;;;;;;;1.97;1.10;;;22.20;80.90;23.00;96757.00;;;;5026592;28;20248;-82
2022/07/05 05:26:18;;;;;;;1.67;1.33;;;22.20;81.00;23.00;96757.00;;;;5045587;28;20185;-82
2022/07/05 05:28:45;;;;;;;3.60;1.40;;;22.20;81.00;23.00;96756.00;;;;5041843;28;20283;-82
2022/07/05 05:31:12;;;;;;;1.63;1.53;;;22.20;81.10;23.00;96762.00;;;;5037455;28;20758;-81
2022/07/05 05:33:39;;;;;;;2.57;1.43;;;22.20;81.10;23.00;96769.00;;;;5028748;28;20305;-84
2022/07/05 05:36:07;;;;;;;1.50;1.40;;;22.20;81.10;23.00;96766.00;;;;5033893;28;20198;-81
2022/07/05 05:38:36;;;;;;;2.13;1.40;;;22.20;81.10;22.90;96761.00;;;;5047748;28;20258;-84
2022/07/05 05:41:03;;;;;;;1.40;1.30;;;22.20;81.00;22.90;96767.00;;;;5040665;28;20241;-83
2022/07/05 05:43:30;;;;;;;1.73;1.63;;;22.20;81.30;22.90;96763.00;;;;5039421;28;20284;-83
2022/07/05 05:45:58;;;;;;;1.67;1.47;;;22.20;81.30;22.90;96767.00;;;;5032122;28;20282;-85
2022/07/05 05:48:25;;;;;;;2.60;1.40;;;22.20;81.20;22.90;96767.00;;;;5040762;28;20198;-84
2022/07/05 05:50:52;;;;;;;1.80;1.40;;;22.20;81.20;22.90;96770.00;;;;5038183;28;20244;-84
2022/07/05 05:53:19;;;;;;;1.80;1.70;;;22.20;81.50;22.90;96775.00;;;;5043232;28;20293;-84
2022/07/05 05:55:48;;;;;;;2.10;1.83;;;22.20;81.50;22.90;96779.00;;;;5019224;28;20259;-84
2022/07/05 05:58:17;;;;;;;2.60;1.50;;;22.20;81.40;22.90;96771.00;;;;5034987;28;20193;-84
2022/07/05 06:00:48;;;;;;;2.47;1.50;;;22.20;81.40;23.00;96773.00;;;;5044591;28;20698;-84
2022/07/05 06:03:15;;;;;;;2.30;1.83;;;22.20;81.50;23.00;96774.00;;;;5047055;28;20661;-84
2022/07/05 06:05:43;;;;;;;2.43;1.53;;;22.30;81.50;23.00;96780.00;;;;5028021;28;20240;-84
2022/07/05 06:08:11;;;;;;;3.03;1.70;;;22.30;81.50;23.00;96786.00;;;;5038047;28;20284;-84
2022/07/05 06:10:39;;;;;;;2.33;1.73;;;22.30;81.60;23.00;96774.00;;;;5026764;28;20225;-84
2022/07/05 06:13:10;;;;;;;1.80;1.70;;;22.30;81.80;23.10;96784.00;;;;5050286;28;20205;-84
2022/07/05 06:15:41;;;;;;;3.10;1.87;;;22.30;81.90;23.10;96780.00;;;;5024433;28;20300;-86
2022/07/05 06:18:10;;;;;;;1.80;1.70;;;22.40;81.90;23.20;96786.00;;;;5034357;28;20201;-86
2022/07/05 06:20:39;;;;;;;2.53;2.13;;;22.40;81.90;23.20;96785.00;;;;5029946;28;20252;-84
2022/07/05 06:23:07;;;;;;;4.10;1.80;;;22.40;81.50;23.20;96779.00;;;;5032839;28;20255;-82
2022/07/05 06:25:36;;;;;;;1.53;1.43;;;22.40;81.30;23.20;96786.00;;;;5027876;28;20288;-82
2022/07/05 06:28:09;;;;;;;1.70;1.60;;;22.50;81.30;23.20;96780.00;;;;5052859;28;20209;-82
2022/07/05 06:30:39;;;;;;;2.00;1.90;;;22.50;81.00;23.20;96785.00;;;;5018501;28;20218;-82
2022/07/05 06:33:06;;;;;;;2.20;1.70;;;22.50;81.40;23.30;96788.00;;;;5050605;28;20251;-80
2022/07/05 06:35:36;;;;;;;3.27;1.80;;;22.50;80.60;23.30;96795.00;;;;5037148;28;20274;-81
2022/07/05 06:38:06;;;;;;;3.60;1.70;;;22.50;80.60;23.30;96795.00;;;;5036690;28;20259;-82
2022/07/05 06:40:37;;;;;;;1.80;1.50;;;22.60;80.50;23.30;96800.00;;;;5033259;28;20312;-82
2022/07/05 06:43:08;;;;;;;1.80;1.70;;;22.60;80.40;23.40;96811.00;;;;5053754;28;20284;-82
2022/07/05 06:45:36;;;;;;;1.70;1.60;;;22.60;80.50;23.40;96805.00;;;;5053789;28;20602;-82
2022/07/05 06:48:06;;;;;;;2.13;1.57;;;22.60;80.30;23.40;96805.00;;;;5035883;28;20205;-82
2022/07/05 06:50:36;;;;;;;1.47;1.37;;;22.70;80.40;23.40;96814.00;;;;5041223;28;20613;-82
2022/07/05 06:53:04;;;;;;;2.23;1.70;;;22.70;80.50;23.50;96810.00;;;;5050656;28;20193;-82
2022/07/05 06:55:31;;;;;;;1.97;1.60;;;22.70;80.20;23.50;96811.00;;;;5037687;28;20255;-82
2022/07/05 06:57:59;;;;;;;2.27;1.50;;;22.70;79.90;23.50;96806.00;;;;5052188;28;20470;-83
2022/07/05 07:00:28;;;;;;;1.53;1.30;;;22.70;79.90;23.50;96803.00;;;;5033198;28;20250;-81
2022/07/05 07:02:56;;;;;;;1.93;1.60;;;22.80;79.40;23.60;96806.00;;;;5049856;28;20224;-82
2022/07/05 07:05:25;;;;;;;1.43;1.33;;;22.80;79.50;23.60;96810.00;;;;5027776;28;20231;-82
2022/07/05 07:10:37;;;;;;;1.50;1.40;;;22.90;80.30;23.80;96817.00;;;;5032369;28;20226;-82
2022/07/05 07:13:05;;;;;;;1.17;1.07;;;23.00;81.30;24.00;96821.00;;;;5047513;28;20282;-82
2022/07/05 07:15:34;;;;;;;1.03;1.03;;;23.00;80.20;24.10;96821.00;;;;5042773;28;20280;-82
2022/07/05 07:18:02;;;;;;;2.37;1.70;;;23.10;79.60;24.20;96816.00;;;;5038459;28;20207;-82
2022/07/05 07:20:29;;;;;;;1.43;1.33;;;23.20;79.70;24.30;96823.00;;;;5015341;28;20331;-82
2022/07/05 07:22:56;;;;;;;1.27;1.17;;;23.30;79.70;24.40;96824.00;;;;5044376;28;20194;-82
2022/07/05 07:25:24;;;;;;;1.60;1.50;;;23.40;79.60;24.60;96829.00;;;;5016752;28;20638;-82
2022/07/05 07:27:54;;;;;;;2.07;1.30;;;23.50;79.30;24.60;96826.00;;;;5043396;28;20689;-82
2022/07/05 07:30:24;;;;;;;1.40;1.30;;;23.60;78.20;24.70;96828.00;;;;5015534;28;20723;-82
2022/07/05 07:32:54;;;;;;;1.30;1.30;;;23.70;78.60;24.80;96833.00;;;;5031963;28;20195;-82
2022/07/05 07:35:22;;;;;;;1.50;1.40;;;23.80;78.30;24.80;96831.00;;;;5029258;28;20301;-82
2022/07/05 07:37:50;;;;;;;1.77;1.30;;;23.80;79.30;25.00;96826.00;;;;5045808;28;20749;-82
2022/07/05 07:40:17;;;;;;;1.50;1.30;;;23.90;77.90;25.10;96829.00;;;;5026042;28;20735;-82
2022/07/05 07:42:45;;;;;;;1.40;1.30;;;24.00;77.90;25.20;96823.00;;;;5042140;28;20204;-82
2022/07/05 07:45:12;;;;;;;1.50;1.37;;;24.10;78.10;25.40;96826.00;;;;5025897;28;20198;-82
2022/07/05 07:47:41;;;;;;;2.27;1.30;;;24.20;78.60;25.50;96829.00;;;;5024995;28;20678;-84
2022/07/05 07:50:10;;;;;;;2.27;1.50;;;24.40;78.70;25.70;96826.00;;;;5024837;28;20213;-84
2022/07/05 07:52:38;;;;;;;1.30;1.20;;;24.50;78.00;25.90;96836.00;;;;5033395;28;20220;-84
2022/07/05 07:55:06;;;;;;;2.53;1.60;;;24.60;76.80;26.00;96826.00;;;;5040239;28;20690;-85
2022/07/05 07:57:34;;;;;;;1.50;1.40;;;24.80;76.10;26.20;96829.00;;;;5020604;28;20251;-84
2022/07/05 08:00:01;;;;;;;1.00;1.00;;;24.90;75.00;26.40;96834.00;;;;5033058;28;20245;-83
2022/07/05 08:02:28;;;;;;;2.47;1.20;;;25.10;74.10;26.50;96834.00;;;;5044305;28;20224;-85
2022/07/05 08:04:57;;;;;;;1.13;1.13;;;25.20;74.30;26.70;96834.00;;;;5052387;28;20227;-82
2022/07/05 08:07:26;;;;;;;1.10;1.10;;;25.40;72.80;26.80;96836.00;;;;5020325;28;20197;-82
2022/07/05 08:09:53;;;;;;;1.70;1.60;;;25.50;71.90;27.00;96838.00;;;;5036343;28;20248;-82
2022/07/05 08:12:21;;;;;;;2.57;1.23;;;25.60;71.70;27.10;96843.00;;;;5034269;28;20292;-82
2022/07/05 08:14:48;;;;;;;2.07;1.07;;;25.80;71.70;27.30;96841.00;;;;5041311;28;20308;-82
2022/07/05 08:17:16;;;;;;;1.83;1.20;;;25.90;70.40;27.50;96841.00;;;;5023549;28;20238;-82
2022/07/05 08:22:29;;;;;;;1.70;1.20;;;26.30;69.60;28.00;96842.00;;;;5033913;28;20262;-81
2022/07/05 08:24:57;;;;;;;0.90;0.90;;;26.50;70.50;28.30;96837.00;;;;5034779;28;20197;-81
2022/07/05 08:27:32;;;;;;;1.13;1.03;;;26.60;69.80;28.40;96841.00;;;;5027531;28;20241;-81
2022/07/05 08:29:59;;;;;;;2.30;1.20;;;26.80;68.20;28.50;96845.00;;;;5014418;28;20213;-82
2022/07/05 08:32:27;;;;;;;2.03;1.40;;;27.00;69.10;28.70;96843.00;;;;5018902;28;20273;-81
2022/07/05 08:34:54;;;;;;;0.90;0.90;;;27.10;67.50;28.80;96841.00;;;;5012946;28;20221;-82
2022/07/05 08:37:21;;;;;;;1.35;0.98;;;27.20;65.80;28.80;96840.00;;;;5013282;28;20218;-84
2022/07/05 08:39:50;;;;;;;1.17;1.08;;;27.40;66.10;28.90;96848.00;;;;5013529;28;20204;-83
2022/07/05 08:42:19;;;;;;;2.35;1.25;;;27.50;65.50;28.90;96844.00;;;;5013346;28;20194;-82
2022/07/05 08:44:51;;;;;;;1.50;1.15;;;27.50;65.70;29.00;96849.00;;;;5015407;28;20198;-82
2022/07/05 08:47:19;;;;;;;0.80;0.80;;;27.60;65.40;29.10;96842.00;;;;5015041;28;20753;-82
2022/07/05 08:49:52;;;;;;;1.27;0.90;;;27.70;63.80;29.30;96846.00;;;;5025768;28;20205;-82
2022/07/05 08:52:19;;;;;;;0.95;0.93;;;27.80;62.90;29.40;96842.00;;;;5020041;28;20256;-82
2022/07/05 08:54:51;;;;;;;0.93;0.93;;;27.90;62.30;29.50;96850.00;;;;5028511;28;20221;-82
2022/07/05 08:57:19;;;;;;;0.95;0.95;;;28.00;61.20;29.60;96847.00;;;;5014517;28;20217;-82
2022/07/05 08:59:46;;;;;;;2.85;0.80;;;28.10;62.60;29.70;96853.00;;;;5018566;28;20197;-82
2022/07/05 09:02:17;;;;;;;1.20;0.90;;;28.10;61.10;29.80;96852.00;;;;5013580;28;20205;-82
2022/07/05 09:04:46;;;;;;;0.90;0.88;;;28.20;59.40;29.90;96851.00;;;;5015345;28;20202;-82
2022/07/05 09:07:17;;;;;;;1.65;0.95;;;28.30;59.40;30.00;96856.00;;;;5021780;28;20209;-83
2022/07/05 09:09:51;;;;;;;0.55;0.55;;;28.40;58.30;30.10;96852.00;;;;5013998;28;20631;-82
2022/07/05 09:12:20;;;;;;;0.70;0.70;;;28.50;58.80;30.30;96847.00;;;;5013139;28;20287;-83
2022/07/05 09:14:47;;;;;;;1.15;1.00;;;28.60;57.90;30.40;96851.00;;;;5009998;28;20218;-82
2022/07/05 09:17:15;;;;;;;0.75;0.73;;;28.70;59.50;30.60;96863.00;;;;5016955;28;20765;-82
2022/07/05 09:19:43;;;;;;;1.70;0.90;;;28.90;59.50;30.90;96858.00;;;;5016961;28;20277;-82
2022/07/05 09:22:10;;;;;;;1.52;0.70;;;29.10;58.70;31.10;96856.00;;;;5010679;28;20206;-83
2022/07/05 09:24:45;;;;;;;0.70;0.70;;;29.30;57.10;31.20;96860.00;;;;5023694;28;20202;-82
2022/07/05 09:27:16;;;;;;;0.80;0.80;;;29.40;54.30;31.30;96853.00;;;;5019987;28;20794;-83
2022/07/05 09:29:55;;;;;;;0.70;0.57;;;29.60;55.00;31.40;96863.00;;;;4993510;28;20197;-84
2022/07/05 09:32:26;;;;;;;0.85;0.47;;;29.70;52.80;31.50;96865.00;;;;5017733;28;20217;-83
2022/07/05 09:34:53;;;;;;;0.80;0.80;;;29.80;53.80;31.70;96859.00;;;;5015632;28;20311;-83
2022/07/05 09:37:44;;;;;;;0.90;0.80;;;30.00;54.20;31.80;96865.00;;;;5015713;28;20933;-83
2022/07/05 09:40:12;;;;;;;0.50;0.50;;;30.10;54.80;32.00;96865.00;;;;5013022;28;20202;-83
2022/07/05 09:42:39;;;;;;;0.57;0.57;;;30.30;54.30;32.30;96862.00;;;;5021253;28;20564;-83
2022/07/05 09:45:10;;;;;;;0.57;0.52;;;30.40;54.00;32.50;96863.00;;;;5010772;28;20626;-83
2022/07/05 09:47:38;;;;;;;0.98;0.57;;;30.50;53.90;32.70;96858.00;;;;5017708;28;20681;-83
2022/07/05 09:50:16;;;;;;;0.47;0.47;;;30.70;53.80;33.00;96854.00;;;;5012756;28;20229;-83
2022/07/05 09:52:45;;;;;;;0.70;0.52;;;30.90;53.20;33.30;96853.00;;;;5012542;28;20197;-83
2022/07/05 09:55:16;;;;;;;0.50;0.50;;;31.10;52.40;33.50;96860.00;;;;5013140;28;20268;-83
2022/07/05 09:57:44;;;;;;;0.70;0.40;;;31.30;52.20;33.80;96867.00;;;;5009669;28;20245;-83
2022/07/05 10:00:15;;;;;;;0.30;0.30;;;31.50;51.90;34.10;96865.00;;;;5016317;28;20201;-83
2022/07/05 10:02:44;;;;;;;0.43;0.43;;;31.70;51.50;34.30;96869.00;;;;5014109;28;20297;-83
2022/07/05 10:05:15;;;;;;;0.68;0.60;;;32.00;50.30;34.50;96868.00;;;;5010450;28;20663;-83
2022/07/05 10:07:45;;;;;;;0.60;0.40;;;32.20;48.10;34.60;96865.00;;;;5014895;28;20234;-82
2022/07/05 10:10:14;;;;;;;3.00;0.50;;;32.40;47.70;34.70;96866.00;;;;5016103;28;20220;-83
2022/07/05 10:12:45;;;;;;;0.70;0.30;;;32.60;47.30;34.80;96867.00;;;;5017587;28;20255;-83
2022/07/05 10:15:15;;;;;;;0.30;0.30;;;32.80;47.90;34.80;96866.00;;;;5010529;28;20376;-84
2022/07/05 10:18:00;;;;;;;0.45;0.45;;;33.00;46.30;34.80;96883.00;;;;5013364;28;20272;-83
2022/07/05 10:20:43;;;;;;;0.30;0.30;;;33.10;43.60;34.70;96875.00;;;;5000564;28;20206;-83
2022/07/05 10:26:24;;;;;;;1.05;0.40;;;33.20;45.00;34.70;96884.00;;;;5089970;27;20579;-84
2022/07/05 10:28:54;;;;;;;1.17;0.40;;;33.30;44.30;34.60;96885.00;;;;5029819;28;20197;-84
2022/07/05 10:31:23;;;;;;;0.40;0.40;;;33.40;43.90;34.50;96877.00;;;;5042752;28;20243;-84
2022/07/05 10:33:52;;;;;;;0.50;0.47;;;33.40;43.70;34.50;96874.00;;;;5036985;28;20244;-84
2022/07/05 10:36:32;;;;;;;1.75;0.50;;;33.40;43.10;34.50;96870.00;;;;5046053;28;20200;-84
2022/07/05 10:39:00;;;;;;;1.75;0.60;;;33.50;43.30;34.40;96881.00;;;;5043012;28;20211;-83
2022/07/05 10:41:31;;;;;;;0.47;0.30;;;33.60;43.70;34.50;96876.00;;;;5036659;28;20598;-84
2022/07/05 10:43:59;;;;;;;0.50;0.30;;;33.80;42.10;34.40;96879.00;;;;5038940;28;20196;-84
2022/07/05 10:46:38;;;;;;;1.85;0.30;;;33.90;43.00;34.40;96876.00;;;;5044938;22;20604;-82
2022/07/05 10:49:15;;;;;;;0.40;0.40;;;34.00;42.10;34.50;96873.00;;;;5028073;28;20667;-81
2022/07/05 10:51:43;;;;;;;0.38;0.38;;;34.10;40.70;34.50;96873.00;;;;5026580;28;20603;-82
2022/07/05 10:54:11;;;;;;;1.23;0.40;;;34.20;40.50;34.50;96874.00;;;;5023305;28;20205;-81
2022/07/05 10:56:40;;;;;;;1.17;0.47;;;34.30;40.10;34.40;96883.00;;;;5023140;28;20296;-83
2022/07/05 10:59:12;;;;;;;0.60;0.50;;;34.20;40.10;34.30;96869.00;;;;5011563;28;20193;-82
2022/07/05 11:01:43;;;;;;;0.30;0.30;;;34.10;38.70;34.20;96878.00;;;;5009095;28;20198;-83
2022/07/05 11:04:29;;;;;;;0.35;0.35;;;34.00;38.70;34.00;96879.00;;;;5009179;28;20213;-83
2022/07/05 11:06:58;;;;;;;1.00;0.30;;;33.90;39.10;33.90;96865.00;;;;5003887;28;20226;-83
2022/07/05 11:09:25;;;;;;;0.60;0.60;;;33.70;40.00;33.80;96870.00;;;;5009285;28;20211;-82